createdAt,value
2018-02-16T00:00:10.957Z,20.48
2018-02-16T00:01:13.463Z,20.47
2018-02-16T00:02:15.941Z,20.47
2018-02-16T00:03:18.402Z,20.47
2018-02-16T00:04:20.883Z,20.46
2018-02-16T00:05:23.364Z,20.42
2018-02-16T00:06:25.864Z,20.40
2018-02-16T00:07:28.327Z,20.36
2018-02-16T00:08:30.795Z,20.32
2018-02-16T00:09:33.259Z,20.30
2018-02-16T00:10:35.731Z,20.28
2018-02-16T00:11:38.223Z,20.29
2018-02-16T00:12:40.686Z,20.37
2018-02-16T00:13:43.165Z,20.42
2018-02-16T00:14:45.644Z,20.46
2018-02-16T00:15:48.110Z,20.48
2018-02-16T00:16:50.610Z,20.49
2018-02-16T00:17:53.075Z,20.54
2018-02-16T00:18:55.552Z,20.56
2018-02-16T00:19:58.015Z,20.56
2018-02-16T00:21:00.477Z,20.56
2018-02-16T00:22:02.958Z,20.54
2018-02-16T00:23:05.465Z,20.52
2018-02-16T00:24:07.976Z,20.47
2018-02-16T00:25:10.455Z,20.42
2018-02-16T00:26:12.921Z,20.38
2018-02-16T00:27:15.421Z,20.40
2018-02-16T00:28:17.891Z,20.41
2018-02-16T00:29:20.355Z,20.46
2018-02-16T00:30:22.814Z,20.51
2018-02-16T00:31:25.297Z,20.61
2018-02-16T00:32:27.808Z,20.67
2018-02-16T00:33:30.289Z,20.70
2018-02-16T00:34:32.769Z,20.68
2018-02-16T00:35:35.239Z,20.67
2018-02-16T00:36:37.706Z,20.66
2018-02-16T00:37:40.195Z,20.66
2018-02-16T00:38:42.658Z,20.64
2018-02-16T00:39:45.146Z,20.62
2018-02-16T00:40:47.635Z,20.58
2018-02-16T00:41:50.113Z,20.53
2018-02-16T00:42:52.617Z,20.49
2018-02-16T00:43:55.078Z,20.47
2018-02-16T00:44:57.557Z,20.48
2018-02-16T00:46:00.030Z,20.52
2018-02-16T00:47:02.498Z,20.64
2018-02-16T00:48:04.979Z,20.72
2018-02-16T00:49:07.443Z,20.79
2018-02-16T00:50:09.902Z,20.81
2018-02-16T00:51:12.367Z,20.84
2018-02-16T00:52:14.843Z,20.87
2018-02-16T00:53:17.330Z,20.89
2018-02-16T00:54:19.808Z,20.85
2018-02-16T00:55:22.290Z,20.81
2018-02-16T00:56:24.773Z,20.76
2018-02-16T00:57:27.254Z,20.73
2018-02-16T00:58:29.757Z,20.68
2018-02-16T00:59:32.240Z,20.62
2018-02-16T01:00:34.707Z,20.63
2018-02-16T01:01:37.202Z,20.63
2018-02-16T01:02:39.681Z,20.68
2018-02-16T01:03:42.230Z,20.72
2018-02-16T01:04:44.696Z,20.79
2018-02-16T01:05:47.197Z,20.86
2018-02-16T01:06:49.658Z,20.90
2018-02-16T01:07:52.133Z,20.92
2018-02-16T01:08:54.621Z,20.90
2018-02-16T01:09:57.101Z,20.92
2018-02-16T01:10:59.581Z,20.90
2018-02-16T01:12:02.053Z,20.91
2018-02-16T01:13:04.537Z,20.89
2018-02-16T01:14:07.042Z,20.85
2018-02-16T01:15:09.525Z,20.81
2018-02-16T01:16:12.005Z,20.77
2018-02-16T01:17:14.475Z,20.75
2018-02-16T01:18:16.939Z,20.73
2018-02-16T01:19:19.426Z,20.78
2018-02-16T01:20:21.891Z,20.81
2018-02-16T01:21:24.355Z,20.84
2018-02-16T01:22:26.840Z,20.93
2018-02-16T01:23:29.321Z,20.92
2018-02-16T01:24:31.837Z,20.95
2018-02-16T01:25:34.332Z,20.98
2018-02-16T01:26:36.795Z,20.99
2018-02-16T01:27:39.283Z,20.99
2018-02-16T01:28:41.757Z,20.95
2018-02-16T01:29:44.243Z,20.92
2018-02-16T01:30:46.716Z,20.90
2018-02-16T01:31:49.187Z,20.86
2018-02-16T01:32:51.668Z,20.83
2018-02-16T01:33:54.136Z,20.82
2018-02-16T01:34:56.631Z,20.82
2018-02-16T01:35:59.095Z,20.84
2018-02-16T01:37:01.593Z,20.86
2018-02-16T01:38:04.065Z,20.95
2018-02-16T01:39:06.535Z,20.97
2018-02-16T01:40:09.023Z,21.08
2018-02-16T01:41:11.499Z,21.08
2018-02-16T01:42:13.982Z,21.10
2018-02-16T01:43:16.457Z,21.07
2018-02-16T01:44:18.922Z,21.09
2018-02-16T01:45:21.429Z,21.06
2018-02-16T01:46:23.897Z,21.04
2018-02-16T01:47:26.353Z,21.01
2018-02-16T01:48:28.828Z,20.97
2018-02-16T01:49:31.316Z,20.92
2018-02-16T01:50:33.819Z,20.91
2018-02-16T01:51:36.297Z,20.91
2018-02-16T01:52:38.773Z,20.91
2018-02-16T01:53:41.257Z,20.96
2018-02-16T01:54:43.742Z,21.00
2018-02-16T01:55:46.241Z,21.03
2018-02-16T01:56:48.710Z,21.13
2018-02-16T01:57:51.183Z,21.15
2018-02-16T01:58:53.665Z,21.17
2018-02-16T01:59:56.130Z,21.17
2018-02-16T02:00:58.627Z,21.19
2018-02-16T02:02:01.088Z,21.16
2018-02-16T02:03:03.553Z,21.13
2018-02-16T02:04:06.025Z,21.11
2018-02-16T02:05:08.491Z,21.06
2018-02-16T02:06:10.995Z,21.02
2018-02-16T02:07:13.462Z,20.99
2018-02-16T02:08:15.937Z,20.95
2018-02-16T02:09:18.407Z,21.00
2018-02-16T02:10:20.870Z,21.08
2018-02-16T02:11:23.372Z,21.14
2018-02-16T02:12:25.839Z,21.21
2018-02-16T02:13:28.321Z,21.28
2018-02-16T02:14:30.891Z,21.31
2018-02-16T02:15:33.360Z,21.30
2018-02-16T02:16:35.852Z,21.30
2018-02-16T02:17:38.333Z,21.29
2018-02-16T02:18:40.812Z,21.27
2018-02-16T02:19:43.299Z,21.25
2018-02-16T02:20:45.767Z,21.22
2018-02-16T02:21:48.266Z,21.16
2018-02-16T02:22:50.740Z,21.14
2018-02-16T02:23:53.222Z,21.09
2018-02-16T02:24:55.705Z,21.08
2018-02-16T02:25:58.174Z,21.10
2018-02-16T02:27:00.658Z,21.14
2018-02-16T02:28:03.148Z,21.20
2018-02-16T02:29:05.618Z,21.24
2018-02-16T02:30:08.092Z,21.30
2018-02-16T02:31:10.574Z,21.35
2018-02-16T02:32:13.184Z,21.36
2018-02-16T02:33:15.648Z,21.38
2018-02-16T02:34:18.129Z,21.36
2018-02-16T02:35:20.614Z,21.37
2018-02-16T02:36:23.099Z,21.32
2018-02-16T02:37:25.596Z,21.28
2018-02-16T02:38:28.081Z,21.25
2018-02-16T02:39:30.564Z,21.23
2018-02-16T02:40:33.038Z,21.19
2018-02-16T02:41:35.536Z,21.17
2018-02-16T02:42:38.035Z,21.19
2018-02-16T02:43:40.500Z,21.22
2018-02-16T02:44:42.985Z,21.23
2018-02-16T02:45:45.454Z,21.31
2018-02-16T02:46:47.924Z,21.38
2018-02-16T02:47:50.415Z,21.44
2018-02-16T02:48:52.883Z,21.48
2018-02-16T02:49:55.365Z,21.48
2018-02-16T02:50:57.847Z,21.47
2018-02-16T02:52:00.327Z,21.43
2018-02-16T02:53:02.823Z,21.41
2018-02-16T02:54:05.286Z,21.36
2018-02-16T02:55:07.765Z,21.30
2018-02-16T02:56:10.245Z,21.28
2018-02-16T02:57:12.711Z,21.25
2018-02-16T02:58:15.216Z,21.23
2018-02-16T02:59:17.698Z,21.27
2018-02-16T03:00:20.181Z,21.26
2018-02-16T03:01:22.660Z,21.34
2018-02-16T03:02:25.126Z,21.38
2018-02-16T03:03:27.606Z,21.47
2018-02-16T03:04:30.074Z,21.49
2018-02-16T03:05:32.546Z,21.51
2018-02-16T03:06:35.006Z,21.51
2018-02-16T03:07:37.486Z,21.52
2018-02-16T03:08:39.988Z,21.52
2018-02-16T03:09:42.469Z,21.50
2018-02-16T03:10:44.953Z,21.46
2018-02-16T03:11:47.414Z,21.43
2018-02-16T03:12:49.881Z,21.37
2018-02-16T03:13:52.380Z,21.33
2018-02-16T03:14:54.858Z,21.32
2018-02-16T03:15:57.326Z,21.32
2018-02-16T03:16:59.790Z,21.39
2018-02-16T03:18:02.293Z,21.47
2018-02-16T03:19:04.797Z,21.54
2018-02-16T03:20:07.278Z,21.57
2018-02-16T03:21:09.766Z,21.61
2018-02-16T03:22:12.230Z,21.63
2018-02-16T03:23:14.695Z,21.61
2018-02-16T03:24:17.194Z,21.62
2018-02-16T03:25:19.659Z,21.63
2018-02-16T03:26:22.143Z,21.55
2018-02-16T03:27:24.607Z,21.52
2018-02-16T03:28:27.071Z,21.50
2018-02-16T03:29:29.559Z,21.46
2018-02-16T03:30:32.045Z,21.41
2018-02-16T03:31:34.532Z,21.42
2018-02-16T03:32:36.994Z,21.42
2018-02-16T03:33:39.473Z,21.48
2018-02-16T03:34:41.963Z,21.52
2018-02-16T03:35:44.428Z,21.56
2018-02-16T03:36:46.915Z,21.61
2018-02-16T03:37:49.396Z,21.65
2018-02-16T03:38:51.881Z,21.67
2018-02-16T03:39:54.371Z,21.71
2018-02-16T03:40:56.855Z,21.68
2018-02-16T03:41:59.345Z,21.68
2018-02-16T03:43:01.821Z,21.67
2018-02-16T03:44:04.289Z,21.66
2018-02-16T03:45:06.774Z,21.63
2018-02-16T03:46:09.262Z,21.60
2018-02-16T03:47:11.739Z,21.55
2018-02-16T03:48:14.202Z,21.52
2018-02-16T03:49:16.675Z,21.54
2018-02-16T03:50:19.171Z,21.60
2018-02-16T03:51:21.645Z,21.62
2018-02-16T03:52:24.110Z,21.67
2018-02-16T03:53:26.589Z,21.70
2018-02-16T03:54:29.058Z,21.76
2018-02-16T03:55:31.543Z,21.78
2018-02-16T03:56:34.031Z,21.80
2018-02-16T03:57:36.514Z,21.81
2018-02-16T03:58:38.997Z,21.77
2018-02-16T03:59:41.475Z,21.77
2018-02-16T04:00:43.973Z,21.72
2018-02-16T04:01:46.441Z,21.68
2018-02-16T04:02:48.902Z,21.63
2018-02-16T04:03:51.374Z,21.59
2018-02-16T04:04:53.839Z,21.57
2018-02-16T04:05:56.327Z,21.58
2018-02-16T04:06:58.805Z,21.60
2018-02-16T04:08:01.275Z,21.66
2018-02-16T04:09:03.739Z,21.74
2018-02-16T04:10:06.208Z,21.75
2018-02-16T04:11:08.703Z,21.76
2018-02-16T04:12:11.163Z,21.81
2018-02-16T04:13:13.641Z,21.86
2018-02-16T04:14:16.116Z,21.88
2018-02-16T04:15:18.597Z,21.90
2018-02-16T04:16:21.098Z,21.85
2018-02-16T04:17:23.577Z,21.80
2018-02-16T04:18:26.057Z,21.77
2018-02-16T04:19:28.522Z,21.73
2018-02-16T04:20:30.987Z,21.69
2018-02-16T04:21:33.474Z,21.66
2018-02-16T04:22:36.159Z,21.66
2018-02-16T04:23:38.677Z,21.67
2018-02-16T04:24:41.146Z,21.76
2018-02-16T04:25:43.621Z,21.79
2018-02-16T04:26:46.107Z,21.84
2018-02-16T04:27:48.584Z,21.88
2018-02-16T04:28:51.055Z,21.91
2018-02-16T04:29:53.534Z,21.94
2018-02-16T04:30:55.994Z,21.95
2018-02-16T04:31:58.482Z,21.92
2018-02-16T04:33:00.964Z,21.92
2018-02-16T04:34:03.462Z,21.88
2018-02-16T04:35:08.557Z,21.85
2018-02-16T04:36:11.027Z,21.79
2018-02-16T04:37:13.510Z,21.76
2018-02-16T04:38:15.981Z,21.71
2018-02-16T04:39:18.463Z,21.73
2018-02-16T04:40:20.947Z,21.77
2018-02-16T04:41:23.412Z,21.81
2018-02-16T04:42:25.926Z,21.84
2018-02-16T04:43:28.441Z,21.93
2018-02-16T04:44:30.894Z,21.96
2018-02-16T04:45:33.413Z,21.96
2018-02-16T04:46:35.896Z,21.95
2018-02-16T04:47:38.388Z,21.96
2018-02-16T04:48:40.855Z,21.98
2018-02-16T04:49:43.318Z,21.95
2018-02-16T04:50:45.802Z,21.96
2018-02-16T04:51:48.264Z,21.90
2018-02-16T04:52:50.752Z,21.85
2018-02-16T04:53:53.237Z,21.80
2018-02-16T04:54:55.702Z,21.78
2018-02-16T04:55:58.181Z,21.76
2018-02-16T04:57:00.646Z,21.79
2018-02-16T04:58:03.149Z,21.84
2018-02-16T04:59:05.620Z,21.87
2018-02-16T05:00:08.083Z,21.95
2018-02-16T05:01:10.564Z,22.00
2018-02-16T05:02:13.131Z,22.05
2018-02-16T05:03:15.615Z,22.08
2018-02-16T05:04:18.080Z,22.08
2018-02-16T05:05:20.552Z,22.02
2018-02-16T05:06:23.015Z,22.02
2018-02-16T05:07:25.502Z,22.00
2018-02-16T05:08:28.000Z,21.95
2018-02-16T05:09:30.463Z,21.90
2018-02-16T05:10:32.950Z,21.86
2018-02-16T05:11:35.413Z,21.84
2018-02-16T05:12:37.966Z,21.85
2018-02-16T05:13:40.459Z,21.90
2018-02-16T05:14:42.923Z,21.94
2018-02-16T05:15:45.391Z,22.00
2018-02-16T05:16:47.855Z,22.05
2018-02-16T05:17:50.427Z,22.08
2018-02-16T05:18:52.938Z,22.10
2018-02-16T05:19:55.402Z,22.10
2018-02-16T05:20:57.884Z,22.12
2018-02-16T05:22:00.357Z,22.13
2018-02-16T05:23:02.839Z,22.12
2018-02-16T05:24:05.335Z,22.08
2018-02-16T05:25:07.818Z,22.06
2018-02-16T05:26:10.282Z,22.02
2018-02-16T05:27:12.746Z,21.97
2018-02-16T05:28:15.220Z,21.93
2018-02-16T05:29:17.722Z,21.90
2018-02-16T05:30:20.197Z,21.96
2018-02-16T05:31:22.666Z,22.03
2018-02-16T05:32:25.147Z,22.12
2018-02-16T05:33:27.619Z,22.15
2018-02-16T05:34:30.100Z,22.19
2018-02-16T05:35:32.580Z,22.18
2018-02-16T05:36:35.068Z,22.20
2018-02-16T05:37:37.534Z,22.21
2018-02-16T05:38:39.990Z,22.19
2018-02-16T05:39:42.493Z,22.17
2018-02-16T05:40:44.988Z,22.14
2018-02-16T05:41:47.466Z,22.09
2018-02-16T05:42:49.930Z,22.06
2018-02-16T05:43:52.441Z,22.05
2018-02-16T05:44:54.941Z,22.01
2018-02-16T05:45:57.447Z,22.01
2018-02-16T05:46:59.910Z,22.06
2018-02-16T05:48:02.388Z,22.08
2018-02-16T05:49:04.860Z,22.10
2018-02-16T05:50:07.391Z,22.18
2018-02-16T05:51:09.869Z,22.23
2018-02-16T05:52:12.358Z,22.24
2018-02-16T05:53:14.822Z,22.27
2018-02-16T05:54:17.299Z,22.25
2018-02-16T05:55:19.784Z,22.25
2018-02-16T05:56:22.248Z,22.22
2018-02-16T05:57:24.707Z,22.19
2018-02-16T05:58:27.947Z,22.15
2018-02-16T05:59:30.420Z,22.11
2018-02-16T06:00:32.910Z,22.07
2018-02-16T06:01:35.393Z,22.02
2018-02-16T06:02:37.863Z,22.04
2018-02-16T06:03:40.345Z,22.07
2018-02-16T06:04:42.824Z,22.14
2018-02-16T06:05:45.324Z,22.17
2018-02-16T06:06:47.787Z,22.23
2018-02-16T06:07:50.264Z,22.27
2018-02-16T06:08:52.727Z,22.32
2018-02-16T06:09:55.198Z,22.35
2018-02-16T06:10:57.700Z,22.34
2018-02-16T06:12:00.193Z,22.31
2018-02-16T06:13:02.659Z,22.30
2018-02-16T06:14:05.118Z,22.26
2018-02-16T06:15:07.590Z,22.24
2018-02-16T06:16:10.128Z,22.21
2018-02-16T06:17:12.594Z,22.14
2018-02-16T06:18:15.073Z,22.11
2018-02-16T06:19:17.558Z,22.11
2018-02-16T06:20:20.051Z,22.13
2018-02-16T06:21:22.548Z,22.13
2018-02-16T06:22:25.037Z,22.20
2018-02-16T06:23:27.503Z,22.27
2018-02-16T06:24:29.976Z,22.33
2018-02-16T06:25:32.453Z,22.36
2018-02-16T06:26:35.013Z,22.36
2018-02-16T06:27:37.490Z,22.34
2018-02-16T06:28:39.970Z,22.35
2018-02-16T06:29:42.445Z,22.33
2018-02-16T06:30:44.914Z,22.30
2018-02-16T06:31:47.402Z,22.27
2018-02-16T06:32:49.866Z,22.22
2018-02-16T06:33:52.335Z,22.19
2018-02-16T06:34:54.816Z,22.17
2018-02-16T06:35:57.291Z,22.16
2018-02-16T06:36:59.801Z,22.18
2018-02-16T06:38:02.276Z,22.22
2018-02-16T06:39:04.839Z,22.28
2018-02-16T06:40:07.304Z,22.35
2018-02-16T06:41:09.767Z,22.39
2018-02-16T06:42:12.348Z,22.41
2018-02-16T06:43:14.810Z,22.43
2018-02-16T06:44:17.275Z,22.44
2018-02-16T06:45:19.734Z,22.43
2018-02-16T06:46:22.206Z,22.43
2018-02-16T06:47:24.708Z,22.41
2018-02-16T06:48:27.827Z,22.35
2018-02-16T06:49:30.292Z,22.31
2018-02-16T06:50:32.751Z,22.24
2018-02-16T06:51:35.229Z,22.21
2018-02-16T06:52:37.848Z,22.21
2018-02-16T06:53:40.329Z,22.22
2018-02-16T06:54:42.833Z,22.24
2018-02-16T06:55:45.313Z,22.31
2018-02-16T06:56:47.776Z,22.36
2018-02-16T06:57:50.341Z,22.40
2018-02-16T06:58:52.817Z,22.43
2018-02-16T06:59:55.293Z,22.43
2018-02-16T07:00:57.759Z,22.43
2018-02-16T07:02:00.267Z,22.44
2018-02-16T07:03:02.832Z,22.43
2018-02-16T07:04:05.313Z,22.39
2018-02-16T07:05:07.803Z,22.38
2018-02-16T07:06:10.267Z,22.36
2018-02-16T07:07:12.734Z,22.32
2018-02-16T07:08:15.237Z,22.29
2018-02-16T07:09:17.713Z,22.27
2018-02-16T07:10:20.192Z,22.30
2018-02-16T07:11:22.654Z,22.34
2018-02-16T07:12:25.133Z,22.38
2018-02-16T07:13:27.635Z,22.40
2018-02-16T07:14:30.103Z,22.46
2018-02-16T07:15:32.591Z,22.54
2018-02-16T07:16:35.073Z,22.55
2018-02-16T07:17:37.536Z,22.54
2018-02-16T07:18:40.014Z,22.52
2018-02-16T07:19:42.506Z,22.50
2018-02-16T07:20:44.971Z,22.48
2018-02-16T07:21:47.430Z,22.45
2018-02-16T07:22:49.891Z,22.42
2018-02-16T07:23:52.403Z,22.37
2018-02-16T07:24:54.886Z,22.35
2018-02-16T07:25:57.355Z,22.36
2018-02-16T07:26:59.819Z,22.40
2018-02-16T07:28:02.293Z,22.44
2018-02-16T07:29:04.803Z,22.51
2018-02-16T07:30:07.297Z,22.54
2018-02-16T07:31:09.773Z,22.59
2018-02-16T07:32:12.261Z,22.60
2018-02-16T07:33:14.749Z,22.62
2018-02-16T07:34:17.247Z,22.61
2018-02-16T07:35:19.706Z,22.61
2018-02-16T07:36:22.193Z,22.58
2018-02-16T07:37:24.663Z,22.52
2018-02-16T07:38:27.839Z,22.52
2018-02-16T07:39:30.352Z,22.48
2018-02-16T07:40:32.831Z,22.41
2018-02-16T07:41:35.299Z,22.37
2018-02-16T07:42:37.788Z,22.33
2018-02-16T07:43:40.271Z,22.35
2018-02-16T07:44:42.777Z,22.39
2018-02-16T07:45:45.248Z,22.47
2018-02-16T07:46:47.724Z,22.53
2018-02-16T07:47:50.205Z,22.56
2018-02-16T07:48:52.685Z,22.57
2018-02-16T07:49:55.171Z,22.62
2018-02-16T07:50:57.654Z,22.62
2018-02-16T07:52:00.132Z,22.62
2018-02-16T07:53:02.604Z,22.60
2018-02-16T07:54:05.288Z,22.58
2018-02-16T07:55:07.778Z,22.54
2018-02-16T07:56:10.253Z,22.49
2018-02-16T07:57:12.729Z,22.46
2018-02-16T07:58:15.198Z,22.44
2018-02-16T07:59:17.666Z,22.42
2018-02-16T08:00:20.398Z,22.45
2018-02-16T08:01:22.893Z,22.51
2018-02-16T08:02:25.481Z,22.59
2018-02-16T08:03:27.968Z,22.67
2018-02-16T08:04:30.432Z,22.67
2018-02-16T08:05:32.915Z,22.69
2018-02-16T08:06:35.419Z,22.70
2018-02-16T08:07:38.073Z,22.72
2018-02-16T08:08:40.546Z,22.71
2018-02-16T08:09:43.006Z,22.69
2018-02-16T08:10:45.491Z,22.66
2018-02-16T08:11:47.954Z,22.64
2018-02-16T08:12:50.419Z,22.59
2018-02-16T08:13:52.904Z,22.54
2018-02-16T08:14:55.590Z,22.49
2018-02-16T08:15:58.144Z,22.54
2018-02-16T08:17:00.627Z,22.54
2018-02-16T08:18:03.104Z,22.54
2018-02-16T08:19:05.566Z,22.53
2018-02-16T08:20:08.050Z,22.54
2018-02-16T08:21:10.549Z,22.50
2018-02-16T08:22:13.025Z,22.45
2018-02-16T08:23:15.503Z,22.37
2018-02-16T08:24:17.970Z,22.27
2018-02-16T08:25:20.449Z,22.19
2018-02-16T08:26:22.958Z,22.12
2018-02-16T08:27:25.448Z,22.05
2018-02-16T08:28:27.930Z,21.95
2018-02-16T08:29:30.398Z,21.85
2018-02-16T08:30:32.879Z,21.74
2018-02-16T08:31:35.371Z,21.65
2018-02-16T08:32:37.880Z,21.55
2018-02-16T08:33:40.346Z,21.47
2018-02-16T08:34:42.821Z,21.36
2018-02-16T08:35:45.291Z,21.30
2018-02-16T08:36:47.782Z,21.22
2018-02-16T08:37:50.255Z,21.16
2018-02-16T08:38:52.740Z,21.08
2018-02-16T08:39:55.220Z,21.01
2018-02-16T08:40:57.682Z,20.94
2018-02-16T08:42:00.178Z,20.89
2018-02-16T08:43:02.680Z,20.83
2018-02-16T08:44:05.158Z,20.79
2018-02-16T08:45:07.661Z,20.74
2018-02-16T08:46:10.147Z,20.68
2018-02-16T08:47:12.640Z,20.60
2018-02-16T08:48:15.106Z,20.54
2018-02-16T08:49:17.588Z,20.47
2018-02-16T08:50:20.100Z,20.42
2018-02-16T08:51:22.631Z,20.36
2018-02-16T08:52:25.132Z,20.33
2018-02-16T08:53:27.599Z,20.29
2018-02-16T08:54:30.085Z,20.25
2018-02-16T08:55:32.569Z,20.23
2018-02-16T08:56:35.049Z,20.18
2018-02-16T08:57:37.684Z,20.12
2018-02-16T08:58:40.172Z,20.08
2018-02-16T08:59:42.657Z,20.06
2018-02-16T09:00:45.127Z,20.00
2018-02-16T09:01:47.590Z,19.92
2018-02-16T09:02:50.092Z,19.86
2018-02-16T09:03:52.580Z,19.81
2018-02-16T09:04:55.050Z,19.77
2018-02-16T09:05:57.532Z,19.71
2018-02-16T09:07:00.163Z,19.66
2018-02-16T09:08:02.659Z,19.64
2018-02-16T09:09:05.209Z,19.60
2018-02-16T09:10:07.756Z,19.56
2018-02-16T09:11:10.241Z,19.50
2018-02-16T09:12:12.733Z,19.46
2018-02-16T09:13:15.223Z,19.42
2018-02-16T09:14:17.694Z,19.40
2018-02-16T09:15:20.159Z,19.32
2018-02-16T09:16:22.656Z,19.30
2018-02-16T09:17:25.138Z,19.26
2018-02-16T09:18:28.458Z,19.22
2018-02-16T09:19:30.941Z,19.18
2018-02-16T09:20:33.420Z,19.15
2018-02-16T09:21:35.901Z,19.14
2018-02-16T09:22:38.378Z,19.12
2018-02-16T09:23:40.847Z,19.10
2018-02-16T09:24:43.324Z,19.11
2018-02-16T09:25:45.791Z,19.10
2018-02-16T09:26:48.272Z,19.09
2018-02-16T09:27:50.742Z,19.08
2018-02-16T09:28:53.202Z,19.07
2018-02-16T09:29:55.689Z,19.05
2018-02-16T09:30:58.154Z,19.03
2018-02-16T09:32:00.627Z,19.00
2018-02-16T09:33:03.104Z,18.98
2018-02-16T09:34:05.592Z,18.98
2018-02-16T09:35:08.150Z,18.99
2018-02-16T09:36:12.132Z,19.00
2018-02-16T09:37:15.482Z,19.01
2018-02-16T09:38:17.950Z,19.02
2018-02-16T09:39:21.450Z,19.03
2018-02-16T09:40:24.905Z,19.05
2018-02-16T09:41:27.370Z,19.08
2018-02-16T09:42:29.852Z,19.10
2018-02-16T09:43:32.322Z,19.13
2018-02-16T09:44:34.817Z,19.16
2018-02-16T09:45:37.344Z,19.18
2018-02-16T09:46:39.825Z,19.19
2018-02-16T09:47:42.290Z,19.22
2018-02-16T09:48:44.758Z,19.22
2018-02-16T09:49:47.254Z,19.24
2018-02-16T09:50:49.741Z,19.25
2018-02-16T09:51:52.216Z,19.26
2018-02-16T09:52:54.721Z,19.27
2018-02-16T09:53:57.210Z,19.27
2018-02-16T09:55:00.645Z,19.27
2018-02-16T09:56:03.145Z,19.28
2018-02-16T09:57:05.608Z,19.28
2018-02-16T09:58:08.153Z,19.27
2018-02-16T09:59:10.619Z,19.28
2018-02-16T10:00:13.107Z,19.28
2018-02-16T10:01:15.585Z,19.28
2018-02-16T10:02:18.069Z,19.28
2018-02-16T10:03:20.553Z,19.28
2018-02-16T10:04:23.041Z,19.28
2018-02-16T10:05:25.541Z,19.29
2018-02-16T10:06:28.010Z,19.29
2018-02-16T10:07:30.495Z,19.31
2018-02-16T10:08:32.962Z,19.35
2018-02-16T10:09:35.437Z,19.37
2018-02-16T10:10:37.948Z,19.39
2018-02-16T10:11:40.428Z,19.41
2018-02-16T10:12:42.917Z,19.42
2018-02-16T10:13:45.442Z,19.45
2018-02-16T10:14:47.922Z,19.46
2018-02-16T10:15:50.424Z,19.48
2018-02-16T10:16:52.908Z,19.50
2018-02-16T10:17:55.396Z,19.51
2018-02-16T10:18:57.873Z,19.52
2018-02-16T10:20:00.360Z,19.53
2018-02-16T10:21:02.845Z,19.53
2018-02-16T10:22:05.321Z,19.56
2018-02-16T10:23:08.038Z,19.56
2018-02-16T10:24:10.525Z,19.56
2018-02-16T10:25:13.005Z,19.58
2018-02-16T10:26:15.486Z,19.57
2018-02-16T10:27:17.962Z,19.57
2018-02-16T10:28:20.430Z,19.57
2018-02-16T10:29:22.925Z,19.58
2018-02-16T10:30:25.413Z,19.59
2018-02-16T10:31:27.921Z,19.57
2018-02-16T10:32:30.405Z,19.58
2018-02-16T10:33:32.877Z,19.58
2018-02-16T10:34:35.346Z,19.57
2018-02-16T10:35:37.821Z,19.57
2018-02-16T10:36:40.376Z,19.58
2018-02-16T10:37:42.838Z,19.58
2018-02-16T10:38:45.398Z,19.58
2018-02-16T10:39:47.873Z,19.59
2018-02-16T10:40:50.351Z,19.58
2018-02-16T10:41:52.834Z,19.59
2018-02-16T10:42:55.298Z,19.60
2018-02-16T10:43:57.766Z,19.60
2018-02-16T10:45:00.247Z,19.60
2018-02-16T10:46:02.718Z,19.61
2018-02-16T10:47:05.215Z,19.62
2018-02-16T10:48:07.693Z,19.62
2018-02-16T10:49:10.168Z,19.62
2018-02-16T10:50:12.635Z,19.62
2018-02-16T10:51:15.098Z,19.62
2018-02-16T10:52:17.598Z,19.63
2018-02-16T10:53:20.072Z,19.63
2018-02-16T10:54:22.557Z,19.64
2018-02-16T10:55:25.037Z,19.63
2018-02-16T10:56:27.503Z,19.64
2018-02-16T10:57:30.008Z,19.64
2018-02-16T10:58:32.513Z,19.64
2018-02-16T10:59:34.967Z,19.66
2018-02-16T11:00:43.224Z,19.66
2018-02-16T11:01:45.709Z,19.66
2018-02-16T11:02:53.852Z,19.67
2018-02-16T11:03:59.315Z,19.67
2018-02-16T11:05:07.487Z,19.66
2018-02-16T11:06:12.903Z,19.66
2018-02-16T11:07:29.841Z,19.65
2018-02-16T11:08:37.997Z,19.64
2018-02-16T11:09:40.472Z,19.63
2018-02-16T11:10:42.990Z,19.63
2018-02-16T11:11:45.479Z,19.63
2018-02-16T11:12:48.001Z,19.63
2018-02-16T11:13:50.463Z,19.62
2018-02-16T11:14:52.946Z,19.61
2018-02-16T11:15:55.427Z,19.61
2018-02-16T11:16:57.888Z,19.61
2018-02-16T11:18:00.369Z,19.61
2018-02-16T11:19:02.859Z,19.60
2018-02-16T11:20:05.349Z,19.60
2018-02-16T11:21:07.840Z,19.59
2018-02-16T11:22:10.302Z,19.61
2018-02-16T11:23:12.783Z,19.60
2018-02-16T11:24:15.311Z,19.62
2018-02-16T11:25:17.789Z,19.62
2018-02-16T11:26:20.262Z,19.62
2018-02-16T11:27:22.743Z,19.63
2018-02-16T11:28:25.246Z,19.65
2018-02-16T11:29:27.766Z,19.65
2018-02-16T11:30:30.231Z,19.65
2018-02-16T11:31:32.713Z,19.65
2018-02-16T11:32:35.186Z,19.64
2018-02-16T11:33:37.666Z,19.65
2018-02-16T11:34:40.157Z,19.65
2018-02-16T11:35:42.637Z,19.68
2018-02-16T11:36:45.113Z,19.68
2018-02-16T11:37:47.588Z,19.68
2018-02-16T11:38:50.128Z,19.69
2018-02-16T11:39:52.619Z,19.70
2018-02-16T11:40:55.083Z,19.72
2018-02-16T11:41:57.603Z,19.71
2018-02-16T11:43:00.093Z,19.70
2018-02-16T11:44:02.559Z,19.69
2018-02-16T11:45:05.043Z,19.69
2018-02-16T11:46:07.507Z,19.65
2018-02-16T11:47:09.988Z,19.63
2018-02-16T11:48:12.461Z,19.62
2018-02-16T11:49:14.931Z,19.61
2018-02-16T11:50:17.415Z,19.61
2018-02-16T11:51:19.882Z,19.61
2018-02-16T11:52:22.373Z,19.60
2018-02-16T11:53:24.834Z,19.60
2018-02-16T11:54:27.316Z,19.61
2018-02-16T11:55:29.820Z,19.62
2018-02-16T11:56:32.282Z,19.61
2018-02-16T11:57:34.769Z,19.61
2018-02-16T11:58:37.276Z,19.61
2018-02-16T11:59:39.742Z,19.61
2018-02-16T12:00:42.236Z,19.61
2018-02-16T12:01:44.721Z,19.60
2018-02-16T12:02:47.213Z,19.61
2018-02-16T12:03:49.704Z,19.60
2018-02-16T12:04:52.164Z,19.60
2018-02-16T12:05:54.664Z,19.59
2018-02-16T12:06:57.141Z,19.60
2018-02-16T12:07:59.624Z,19.61
2018-02-16T12:09:02.109Z,19.60
2018-02-16T12:10:04.575Z,19.60
2018-02-16T12:11:07.138Z,19.60
2018-02-16T12:12:09.621Z,19.60
2018-02-16T12:13:12.091Z,19.60
2018-02-16T12:14:14.577Z,19.60
2018-02-16T12:15:17.063Z,19.59
2018-02-16T12:16:19.547Z,19.59
2018-02-16T12:17:22.024Z,19.58
2018-02-16T12:18:24.502Z,19.59
2018-02-16T12:19:26.992Z,19.59
2018-02-16T12:20:29.679Z,19.59
2018-02-16T12:21:32.163Z,19.59
2018-02-16T12:22:34.626Z,19.59
2018-02-16T12:23:37.090Z,19.58
2018-02-16T12:24:39.554Z,19.59
2018-02-16T12:25:42.023Z,19.59
2018-02-16T12:26:44.503Z,19.59
2018-02-16T12:27:46.991Z,19.58
2018-02-16T12:28:49.473Z,19.58
2018-02-16T12:29:51.986Z,19.58
2018-02-16T12:30:54.469Z,19.58
2018-02-16T12:31:56.961Z,19.58
2018-02-16T12:32:59.465Z,19.58
2018-02-16T12:34:01.930Z,19.58
2018-02-16T12:35:04.446Z,19.57
2018-02-16T12:36:06.941Z,19.57
2018-02-16T12:37:09.449Z,19.56
2018-02-16T12:38:11.908Z,19.56
2018-02-16T12:39:14.390Z,19.56
2018-02-16T12:40:16.860Z,19.57
2018-02-16T12:41:19.327Z,19.55
2018-02-16T12:42:21.820Z,19.55
2018-02-16T12:43:24.279Z,19.54
2018-02-16T12:44:26.738Z,19.54
2018-02-16T12:45:29.210Z,19.54
2018-02-16T12:46:31.689Z,19.54
2018-02-16T12:47:34.176Z,19.54
2018-02-16T12:48:36.658Z,19.53
2018-02-16T12:49:39.210Z,19.53
2018-02-16T12:50:41.683Z,19.53
2018-02-16T12:51:44.149Z,19.53
2018-02-16T12:52:46.643Z,19.52
2018-02-16T12:53:49.111Z,19.53
2018-02-16T12:54:51.579Z,19.51
2018-02-16T12:55:54.058Z,19.51
2018-02-16T12:56:56.543Z,19.51
2018-02-16T12:57:59.061Z,19.50
2018-02-16T12:59:01.527Z,19.50
2018-02-16T13:00:04.003Z,19.49
2018-02-16T13:01:06.485Z,19.49
2018-02-16T13:02:08.954Z,19.49
2018-02-16T13:03:11.438Z,19.48
2018-02-16T13:04:13.918Z,19.48
2018-02-16T13:05:16.400Z,19.48
2018-02-16T13:06:18.877Z,19.48
2018-02-16T13:07:21.352Z,19.47
2018-02-16T13:08:23.835Z,19.46
2018-02-16T13:09:26.724Z,19.46
2018-02-16T13:10:29.272Z,19.47
2018-02-16T13:11:31.761Z,19.47
2018-02-16T13:12:34.226Z,19.47
2018-02-16T13:13:36.741Z,19.46
2018-02-16T13:14:39.225Z,19.46
2018-02-16T13:15:41.690Z,19.46
2018-02-16T13:16:44.169Z,19.46
2018-02-16T13:17:46.641Z,19.45
2018-02-16T13:18:49.142Z,19.46
2018-02-16T13:19:51.629Z,19.45
2018-02-16T13:20:54.116Z,19.45
2018-02-16T13:21:56.595Z,19.43
2018-02-16T13:22:59.058Z,19.42
2018-02-16T13:24:01.543Z,19.43
2018-02-16T13:25:04.091Z,19.42